createdAt,value
2023-05-03T00:01:10.196Z,10.90
2023-05-03T00:05:12.011Z,11.50
2023-05-03T00:09:13.695Z,12.43
2023-05-03T00:13:14.954Z,12.53
2023-05-03T00:17:16.298Z,10.43
2023-05-03T00:21:17.609Z,13.23
2023-05-03T00:25:18.748Z,14.17
2023-05-03T00:29:21.596Z,12.93
2023-05-03T00:33:22.777Z,14.90
2023-05-03T00:37:24.438Z,14.83
2023-05-03T00:41:26.083Z,12.97
2023-05-03T00:45:30.342Z,11.73
2023-05-03T00:49:31.515Z,12.23
2023-05-03T00:53:32.975Z,11.53
2023-05-03T00:57:34.110Z,9.93
2023-05-03T01:01:35.413Z,13.17
2023-05-03T01:05:40.337Z,11.37
2023-05-03T01:09:51.372Z,19.20
2023-05-03T01:13:58.648Z,10.43
2023-05-03T01:18:12.787Z,10.67
2023-05-03T01:22:33.338Z,10.70
2023-05-03T01:26:34.508Z,17.37
2023-05-03T01:30:36.574Z,12.80
2023-05-03T01:34:41.573Z,9.83
2023-05-03T01:38:43.119Z,15.60
2023-05-03T01:42:44.391Z,12.73
2023-05-03T01:46:46.345Z,11.47
2023-05-03T01:50:47.488Z,14.50
2023-05-03T01:54:48.646Z,17.80
2023-05-03T01:58:49.789Z,10.37
2023-05-03T02:02:51.076Z,9.80
2023-05-03T02:06:52.216Z,13.23
2023-05-03T02:10:53.356Z,9.63
2023-05-03T02:14:54.517Z,12.63
2023-05-03T02:18:57.559Z,11.87
2023-05-03T02:22:58.828Z,13.07
2023-05-03T02:26:59.995Z,13.67
2023-05-03T02:31:01.328Z,11.03
2023-05-03T02:35:02.520Z,14.20
2023-05-03T02:39:03.574Z,10.40
2023-05-03T02:43:04.732Z,11.70
2023-05-03T02:47:05.878Z,10.83
2023-05-03T02:51:07.039Z,13.20
2023-05-03T02:55:08.849Z,9.57
2023-05-03T02:59:11.003Z,12.67
2023-05-03T03:03:12.348Z,11.87
2023-05-03T03:07:13.498Z,12.63
2023-05-03T03:11:14.858Z,11.60
2023-05-03T03:15:16.286Z,12.70
2023-05-03T03:19:17.413Z,11.83
2023-05-03T03:23:18.580Z,11.70
2023-05-03T03:27:20.824Z,15.10
2023-05-03T03:31:22.487Z,11.47
2023-05-03T03:35:24.107Z,15.00
2023-05-03T03:39:25.276Z,11.13
2023-05-03T03:43:26.571Z,14.13
2023-05-03T03:47:27.821Z,12.40
2023-05-03T03:51:28.973Z,11.80
2023-05-03T03:55:30.517Z,14.97
2023-05-03T03:59:31.602Z,11.10
2023-05-03T04:03:32.790Z,16.23
2023-05-03T04:07:33.994Z,13.60
2023-05-03T04:11:35.405Z,11.70
2023-05-03T04:15:36.551Z,11.83
2023-05-03T04:19:37.920Z,13.90
2023-05-03T04:23:39.669Z,13.50
2023-05-03T04:27:41.036Z,16.23
2023-05-03T04:31:42.950Z,13.80
2023-05-03T04:35:44.039Z,12.60
2023-05-03T04:39:45.597Z,14.57
2023-05-03T04:43:46.752Z,14.10
2023-05-03T04:47:48.039Z,14.43
2023-05-03T04:51:49.179Z,14.53
2023-05-03T04:55:50.616Z,11.50
2023-05-03T04:59:53.422Z,19.13
2023-05-03T05:03:54.638Z,12.47
2023-05-03T05:07:55.756Z,10.83
2023-05-03T05:11:57.456Z,17.13
2023-05-03T05:15:58.592Z,10.60
2023-05-03T05:19:59.916Z,12.40
2023-05-03T05:24:01.213Z,15.60
2023-05-03T05:28:02.485Z,13.90
2023-05-03T05:32:04.696Z,13.80
2023-05-03T05:36:06.179Z,13.93
2023-05-03T05:40:08.386Z,20.03
2023-05-03T05:44:09.547Z,13.07
2023-05-03T05:48:10.757Z,12.40
2023-05-03T05:52:11.880Z,24.03
2023-05-03T05:56:13.719Z,11.70
2023-05-03T06:00:16.479Z,10.67
2023-05-03T06:04:17.662Z,12.90
2023-05-03T06:08:18.800Z,14.90
2023-05-03T06:12:19.966Z,9.93
2023-05-03T06:16:21.535Z,14.30
2023-05-03T06:20:23.695Z,12.90
2023-05-03T06:24:26.754Z,17.30
2023-05-03T06:28:27.911Z,8.70
2023-05-03T06:32:29.057Z,10.40
2023-05-03T06:36:30.319Z,8.37
2023-05-03T06:40:31.494Z,14.40
2023-05-03T06:44:33.973Z,12.23
2023-05-03T06:48:35.124Z,10.43
2023-05-03T06:52:36.221Z,12.70
2023-05-03T06:56:37.307Z,10.17
2023-05-03T07:00:38.646Z,13.63
2023-05-03T07:04:39.940Z,12.60
2023-05-03T07:08:41.086Z,11.23
2023-05-03T07:12:42.243Z,13.37
2023-05-03T07:16:43.463Z,12.70
2023-05-03T07:20:45.661Z,11.90
2023-05-03T07:24:46.861Z,6.80
2023-05-03T07:28:47.980Z,8.97
2023-05-03T07:32:50.076Z,9.70
2023-05-03T07:36:54.065Z,6.90
2023-05-03T07:40:55.223Z,11.80
2023-05-03T07:44:56.399Z,8.00
2023-05-03T07:48:58.120Z,8.50
2023-05-03T07:52:59.263Z,7.47
2023-05-03T07:57:00.539Z,9.63
2023-05-03T08:01:01.771Z,8.27
2023-05-03T08:05:04.542Z,7.57
2023-05-03T08:09:05.795Z,13.27
2023-05-03T08:13:07.456Z,8.50
2023-05-03T08:17:08.938Z,9.97
2023-05-03T08:21:11.681Z,8.60
2023-05-03T08:25:12.960Z,9.53
2023-05-03T08:29:14.496Z,11.90
2023-05-03T08:33:15.689Z,7.63
2023-05-03T08:37:16.985Z,10.87
2023-05-03T08:41:25.390Z,13.17
2023-05-03T08:45:26.524Z,14.20
2023-05-03T08:49:28.770Z,9.27
2023-05-03T08:53:30.240Z,10.97
2023-05-03T08:57:33.610Z,10.93
2023-05-03T09:01:36.169Z,10.83
2023-05-03T09:05:39.275Z,9.23
2023-05-03T09:09:40.470Z,8.50
2023-05-03T09:13:41.554Z,13.03
2023-05-03T09:17:42.811Z,9.70
2023-05-03T09:21:46.321Z,9.30
2023-05-03T09:25:48.978Z,10.57
2023-05-03T09:29:50.753Z,8.00
2023-05-03T09:33:52.823Z,8.07
2023-05-03T09:37:53.979Z,8.13
2023-05-03T09:41:55.898Z,10.63
2023-05-03T09:46:12.533Z,9.33
2023-05-03T09:50:13.877Z,8.80
2023-05-03T09:54:15.971Z,9.10
2023-05-03T09:58:18.153Z,9.03
2023-05-03T10:02:21.074Z,8.07
2023-05-03T10:06:31.207Z,8.70
2023-05-03T10:10:35.133Z,8.27
2023-05-03T10:14:36.299Z,11.97
2023-05-03T10:18:41.280Z,9.73
2023-05-03T10:23:05.934Z,8.80
2023-05-03T10:27:07.806Z,9.17
2023-05-03T10:31:46.519Z,10.07
2023-05-03T10:35:52.560Z,10.30
2023-05-03T10:39:54.672Z,9.53
2023-05-03T10:43:57.040Z,8.13
2023-05-03T10:48:15.915Z,6.57
2023-05-03T10:52:39.184Z,7.53
2023-05-03T10:56:48.988Z,9.90
2023-05-03T11:00:54.242Z,7.67
2023-05-03T11:04:59.296Z,6.93
2023-05-03T11:09:01.252Z,7.90
2023-05-03T11:13:04.337Z,9.37
2023-05-03T11:17:05.751Z,7.87
2023-05-03T11:21:06.923Z,8.47
2023-05-03T11:25:09.923Z,8.70
2023-05-03T11:29:12.997Z,6.90
2023-05-03T11:33:14.268Z,11.90
2023-05-03T11:37:15.497Z,7.33
2023-05-03T11:41:17.379Z,10.70
2023-05-03T11:45:24.300Z,7.07
2023-05-03T11:49:26.931Z,6.80
2023-05-03T11:53:28.296Z,6.97
2023-05-03T11:57:31.275Z,6.07
2023-05-03T12:01:32.673Z,6.97
2023-05-03T12:05:34.191Z,7.53
2023-05-03T12:09:35.914Z,8.03
2023-05-03T12:13:39.729Z,7.13
2023-05-03T12:17:44.139Z,8.77
2023-05-03T12:22:01.184Z,6.40
2023-05-03T12:25:52.862Z,7.93
2023-05-03T12:29:55.649Z,6.30
2023-05-03T12:34:19.742Z,7.43
2023-05-03T12:38:03.036Z,6.63
2023-05-03T12:42:07.779Z,7.40
2023-05-03T12:46:32.371Z,8.00
2023-05-03T12:50:12.591Z,5.20
2023-05-03T12:54:18.370Z,7.30
2023-05-03T13:06:24.628Z,6.57
2023-05-03T13:10:26.455Z,9.03
2023-05-03T13:14:27.854Z,5.50
2023-05-03T13:18:29.008Z,6.67
2023-05-03T13:22:30.849Z,6.80
2023-05-03T13:26:32.571Z,5.27
2023-05-03T13:30:33.837Z,8.90
2023-05-03T13:34:35.521Z,6.90
2023-05-03T13:38:36.851Z,5.30
2023-05-03T13:42:38.022Z,10.10
2023-05-03T13:46:40.824Z,6.07
2023-05-03T13:50:42.448Z,7.50
2023-05-03T13:54:43.643Z,8.00
2023-05-03T13:58:44.775Z,6.93
2023-05-03T14:02:51.977Z,7.00
2023-05-03T14:06:53.366Z,8.03
2023-05-03T14:10:54.573Z,12.93
2023-05-03T14:14:55.745Z,6.20
2023-05-03T14:18:57.406Z,5.93
2023-05-03T14:22:58.641Z,6.03
2023-05-03T14:27:01.113Z,9.13
2023-05-03T14:31:06.904Z,5.83
2023-05-03T14:35:08.709Z,6.17
2023-05-03T14:39:12.558Z,8.37
2023-05-03T14:43:14.865Z,5.57
2023-05-03T14:47:16.210Z,5.27
2023-05-03T14:51:18.257Z,10.23
2023-05-03T14:55:19.454Z,7.67
2023-05-03T14:59:20.720Z,6.37
2023-05-03T15:03:21.913Z,6.53
2023-05-03T15:07:23.333Z,8.30
2023-05-03T15:11:26.988Z,5.00
2023-05-03T15:15:28.241Z,4.73
2023-05-03T15:19:29.563Z,5.57
2023-05-03T15:23:30.794Z,5.90
2023-05-03T15:27:32.051Z,7.27
2023-05-03T15:31:34.787Z,6.73
2023-05-03T15:35:38.638Z,7.03
2023-05-03T15:39:39.788Z,4.43
2023-05-03T15:43:40.967Z,5.00
2023-05-03T15:47:42.475Z,5.97
2023-05-03T15:51:43.581Z,9.80
2023-05-03T15:55:45.150Z,7.37
2023-05-03T15:59:49.653Z,12.13
2023-05-03T16:03:50.782Z,4.80
2023-05-03T16:07:56.165Z,5.57
2023-05-03T16:11:59.068Z,4.90
2023-05-03T16:16:02.323Z,6.73
2023-05-03T16:20:09.421Z,8.23
2023-05-03T16:24:11.888Z,9.10
2023-05-03T16:28:14.676Z,21.93
2023-05-03T16:32:16.015Z,7.60
2023-05-03T16:36:19.027Z,13.87
2023-05-03T16:40:20.566Z,7.70
2023-05-03T16:44:23.496Z,4.17
2023-05-03T16:48:25.612Z,6.53
2023-05-03T16:52:27.899Z,6.37
2023-05-03T16:56:30.340Z,5.33
2023-05-03T17:00:32.852Z,5.73
2023-05-03T17:04:34.716Z,4.60
2023-05-03T17:08:36.572Z,5.53
2023-05-03T17:12:38.180Z,4.50
2023-05-03T17:16:40.412Z,7.27
2023-05-03T17:20:42.197Z,12.57
2023-05-03T17:24:43.590Z,7.40
2023-05-03T17:28:44.711Z,4.90
2023-05-03T17:32:46.105Z,6.80
2023-05-03T17:36:47.249Z,6.10
2023-05-03T17:40:48.506Z,5.47
2023-05-03T17:44:54.512Z,5.70
2023-05-03T17:48:57.118Z,6.90
2023-05-03T17:52:58.733Z,7.40
2023-05-03T17:57:01.947Z,8.63
2023-05-03T18:01:05.153Z,6.90
2023-05-03T18:05:07.248Z,4.27
2023-05-03T18:09:08.408Z,6.13
2023-05-03T18:13:11.984Z,4.10
2023-05-03T18:17:13.126Z,8.27
2023-05-03T18:21:14.280Z,5.27
2023-05-03T18:25:16.252Z,5.53
2023-05-03T18:29:17.443Z,5.73
2023-05-03T18:33:19.540Z,5.27
2023-05-03T18:37:23.877Z,8.23
2023-05-03T18:41:24.401Z,5.67
2023-05-03T18:45:26.210Z,5.30
2023-05-03T18:49:27.469Z,4.80
2023-05-03T18:53:30.426Z,3.80
2023-05-03T18:57:31.743Z,4.00
2023-05-03T19:01:33.213Z,5.23
2023-05-03T19:05:34.470Z,3.67
2023-05-03T19:09:37.788Z,5.37
2023-05-03T19:13:41.738Z,4.63
2023-05-03T19:17:43.977Z,3.73
2023-05-03T19:21:45.169Z,5.03
2023-05-03T19:25:46.477Z,4.73
2023-05-03T19:29:47.756Z,4.90
2023-05-03T19:33:49.025Z,5.00
2023-05-03T19:37:50.370Z,4.00
2023-05-03T19:41:52.483Z,7.13
2023-05-03T19:45:53.806Z,7.40
2023-05-03T19:49:55.460Z,4.27
2023-05-03T19:53:57.237Z,5.10
2023-05-03T19:57:58.679Z,8.87
2023-05-03T20:02:00.054Z,7.53
2023-05-03T20:06:01.703Z,6.03
2023-05-03T20:10:04.797Z,7.23
2023-05-03T20:14:07.269Z,6.30
2023-05-03T20:18:08.668Z,8.93
2023-05-03T20:22:10.597Z,7.40
2023-05-03T20:26:11.818Z,6.87
2023-05-03T20:30:13.314Z,5.23
2023-05-03T20:34:14.767Z,5.80
2023-05-03T20:38:16.158Z,5.47
2023-05-03T20:42:17.370Z,5.80
2023-05-03T20:46:18.836Z,7.37
2023-05-03T20:50:20.356Z,5.07
2023-05-03T20:54:22.570Z,8.57
2023-05-03T20:58:23.772Z,5.90
2023-05-03T21:02:25.000Z,7.63
2023-05-03T21:06:26.504Z,6.20
2023-05-03T21:10:27.658Z,11.23
2023-05-03T21:14:28.877Z,6.80
2023-05-03T21:18:30.038Z,5.77
2023-05-03T21:22:31.440Z,7.53
2023-05-03T21:26:32.611Z,5.90
2023-05-03T21:30:33.988Z,5.70
2023-05-03T21:34:35.181Z,6.37
2023-05-03T21:38:36.300Z,6.10
2023-05-03T21:42:38.068Z,6.90
2023-05-03T21:46:42.341Z,8.90
2023-05-03T21:50:45.176Z,6.80
2023-05-03T21:54:46.430Z,7.07
2023-05-03T21:58:48.200Z,7.40
2023-05-03T22:02:49.375Z,6.77
2023-05-03T22:06:50.498Z,5.50
2023-05-03T22:10:51.677Z,7.10
2023-05-03T22:14:53.631Z,4.50
2023-05-03T22:18:55.032Z,6.60
2023-05-03T22:22:57.104Z,6.60
2023-05-03T22:26:58.548Z,10.00
2023-05-03T22:30:59.712Z,7.13
2023-05-03T22:35:00.877Z,6.77
2023-05-03T22:39:04.066Z,6.80
2023-05-03T22:43:05.322Z,6.50
2023-05-03T22:47:07.477Z,7.63
2023-05-03T22:51:08.767Z,7.13
2023-05-03T22:55:10.099Z,8.50
2023-05-03T22:59:11.551Z,6.33
2023-05-03T23:03:12.786Z,6.53
2023-05-03T23:07:14.678Z,5.50
2023-05-03T23:11:15.847Z,7.97
2023-05-03T23:15:17.018Z,7.27
2023-05-03T23:19:20.647Z,6.40
2023-05-03T23:23:22.064Z,6.17
2023-05-03T23:27:23.196Z,6.07
2023-05-03T23:31:24.945Z,8.90
2023-05-03T23:35:26.515Z,6.23
2023-05-03T23:39:27.678Z,7.57
2023-05-03T23:43:28.817Z,7.33
2023-05-03T23:47:30.194Z,7.13
2023-05-03T23:51:31.328Z,8.37
2023-05-03T23:55:32.418Z,6.20
2023-05-03T23:59:33.541Z,7.07
